Stony Plain, Canada
Current Conditions -  °F | °C
As of 6:00 AM on Saturday 01 Nov 2014 (Local Time) from CWSE Reporting Station
Light Rain Light Rain  
Wind Chill:   Ceiling: 5400
Heat Index:   Visibility: 15mi
Dew Point:   Wind: 3mph
Humidity: 99%   Direction: 250°WSW
Pressure: 29.79"   Gusts: NA
Location:  53.53°N, 114.01°W
Report Text: CWSE 011200Z 25003KT 15SM -RA SCT011 BKN054 02/02 A2979 RMK SLP111 T00250023 WSI/SWOB
Loading
Personal Weather Stations






























Interactive Weather Map
Tropical Storm Tracking
New forecast layout! Learn more

10-Day Weather Forecast

Advertisements
Track Severe Weather on mobile